sensor_id;sensor_type;location;lat;lon;timestamp;pressure;altitude;pressure_sealevel;temperature;humidity
62634;BME280;48704;50.534;6.442;2023-02-15T00:01:12;96678.31;;;3.12;100.00
62634;BME280;48704;50.534;6.442;2023-02-15T00:03:37;96681.88;;;3.09;100.00
62634;BME280;48704;50.534;6.442;2023-02-15T00:06:04;96681.13;;;3.05;100.00
62634;BME280;48704;50.534;6.442;2023-02-15T00:08:30;96680.78;;;2.96;100.00
62634;BME280;48704;50.534;6.442;2023-02-15T00:11:10;96672.09;;;3.01;100.00
62634;BME280;48704;50.534;6.442;2023-02-15T00:13:35;96676.47;;;2.95;100.00
62634;BME280;48704;50.534;6.442;2023-02-15T00:16:06;96675.72;;;2.91;100.00
62634;BME280;48704;50.534;6.442;2023-02-15T00:18:32;96672.09;;;3.01;100.00
62634;BME280;48704;50.534;6.442;2023-02-15T00:20:58;96678.38;;;3.05;100.00
62634;BME280;48704;50.534;6.442;2023-02-15T00:23:24;96671.25;;;3.11;100.00
62634;BME280;48704;50.534;6.442;2023-02-15T00:25:49;96668.50;;;3.11;100.00
62634;BME280;48704;50.534;6.442;2023-02-15T00:28:15;96667.72;;;3.11;100.00
62634;BME280;48704;50.534;6.442;2023-02-15T00:30:40;96669.66;;;3.14;100.00
62634;BME280;48704;50.534;6.442;2023-02-15T00:33:05;96662.22;;;3.07;100.00
62634;BME280;48704;50.534;6.442;2023-02-15T00:35:31;96665.75;;;3.08;100.00
62634;BME280;48704;50.534;6.442;2023-02-15T00:37:56;96663.78;;;3.08;100.00
62634;BME280;48704;50.534;6.442;2023-02-15T00:40:22;96656.38;;;2.98;100.00
62634;BME280;48704;50.534;6.442;2023-02-15T00:42:47;96659.13;;;2.98;100.00
62634;BME280;48704;50.534;6.442;2023-02-15T00:45:12;96658.38;;;2.94;100.00
62634;BME280;48704;50.534;6.442;2023-02-15T00:47:37;96658.44;;;2.83;100.00
62634;BME280;48704;50.534;6.442;2023-02-15T00:50:03;96653.75;;;2.77;100.00
62634;BME280;48704;50.534;6.442;2023-02-15T00:52:28;96664.75;;;2.77;100.00
62634;BME280;48704;50.534;6.442;2023-02-15T00:54:54;96658.84;;;2.82;100.00
62634;BME280;48704;50.534;6.442;2023-02-15T00:57:19;96651.44;;;2.61;100.00
62634;BME280;48704;50.534;6.442;2023-02-15T00:59:44;96650.59;;;2.82;100.00
62634;BME280;48704;50.534;6.442;2023-02-15T01:02:09;96648.94;;;2.95;100.00
62634;BME280;48704;50.534;6.442;2023-02-15T01:04:35;96652.09;;;2.97;100.00
62634;BME280;48704;50.534;6.442;2023-02-15T01:07:00;96650.47;;;2.99;100.00
62634;BME280;48704;50.534;6.442;2023-02-15T01:09:27;96646.19;;;2.95;100.00
62634;BME280;48704;50.534;6.442;2023-02-15T01:11:52;96653.97;;;3.03;100.00
62634;BME280;48704;50.534;6.442;2023-02-15T01:14:17;96646.44;;;3.15;100.00
62634;BME280;48704;50.534;6.442;2023-02-15T01:16:43;96644.06;;;3.17;100.00
62634;BME280;48704;50.534;6.442;2023-02-15T01:19:08;96649.56;;;3.20;100.00
62634;BME280;48704;50.534;6.442;2023-02-15T01:21:33;96651.09;;;3.25;100.00
62634;BME280;48704;50.534;6.442;2023-02-15T01:24:00;96640.44;;;3.30;100.00
62634;BME280;48704;50.534;6.442;2023-02-15T01:26:26;96644.78;;;3.31;100.00
62634;BME280;48704;50.534;6.442;2023-02-15T01:28:51;96642.31;;;3.41;100.00
62634;BME280;48704;50.534;6.442;2023-02-15T01:31:20;96646.91;;;3.58;100.00
62634;BME280;48704;50.534;6.442;2023-02-15T01:33:46;96637.28;;;3.77;100.00
62634;BME280;48704;50.534;6.442;2023-02-15T01:36:12;96632.66;;;3.70;100.00
62634;BME280;48704;50.534;6.442;2023-02-15T01:38:37;96631.88;;;3.69;100.00
62634;BME280;48704;50.534;6.442;2023-02-15T01:41:03;96629.91;;;3.70;100.00
62634;BME280;48704;50.534;6.442;2023-02-15T01:43:50;96619.94;;;3.80;100.00
62634;BME280;48704;50.534;6.442;2023-02-15T01:46:17;96623.84;;;3.82;100.00
62634;BME280;48704;50.534;6.442;2023-02-15T01:48:48;96623.03;;;3.85;100.00
62634;BME280;48704;50.534;6.442;2023-02-15T01:51:17;96626.22;;;3.80;100.00
62634;BME280;48704;50.534;6.442;2023-02-15T01:53:51;96614.03;;;3.78;100.00
62634;BME280;48704;50.534;6.442;2023-02-15T01:56:22;96623.09;;;3.78;100.00
62634;BME280;48704;50.534;6.442;2023-02-15T01:58:51;96621.28;;;3.64;100.00
62634;BME280;48704;50.534;6.442;2023-02-15T02:01:18;96606.72;;;3.64;100.00
62634;BME280;48704;50.534;6.442;2023-02-15T02:06:24;96604.16;;;3.84;100.00
62634;BME280;48704;50.534;6.442;2023-02-15T02:08:51;96607.28;;;3.86;100.00
62634;BME280;48704;50.534;6.442;2023-02-15T02:11:17;96604.72;;;4.06;100.00
62634;BME280;48704;50.534;6.442;2023-02-15T02:13:43;96600.66;;;4.14;100.00
62634;BME280;48704;50.534;6.442;2023-02-15T02:16:14;96599.03;;;4.20;100.00
62634;BME280;48704;50.534;6.442;2023-02-15T02:30:49;96589.63;;;4.14;100.00
62634;BME280;48704;50.534;6.442;2023-02-15T02:36:42;96573.63;;;4.01;100.00
62634;BME280;48704;50.534;6.442;2023-02-15T02:41:56;96555.78;;;4.10;100.00
62634;BME280;48704;50.534;6.442;2023-02-15T02:44:35;96567.56;;;4.14;100.00
62634;BME280;48704;50.534;6.442;2023-02-15T02:47:12;96568.16;;;3.98;100.00
62634;BME280;48704;50.534;6.442;2023-02-15T02:49:41;96565.19;;;3.82;100.00
62634;BME280;48704;50.534;6.442;2023-02-15T02:55:24;96558.50;;;3.79;100.00
62634;BME280;48704;50.534;6.442;2023-02-15T02:57:58;96549.13;;;3.73;100.00
62634;BME280;48704;50.534;6.442;2023-02-15T03:00:25;96549.97;;;3.70;100.00
62634;BME280;48704;50.534;6.442;2023-02-15T03:02:56;96548.38;;;3.69;100.00
62634;BME280;48704;50.534;6.442;2023-02-15T03:05:30;96539.94;;;3.46;100.00
62634;BME280;48704;50.534;6.442;2023-02-15T03:07:58;96543.13;;;3.41;100.00
62634;BME280;48704;50.534;6.442;2023-02-15T03:10:27;96550.22;;;3.42;100.00
62634;BME280;48704;50.534;6.442;2023-02-15T03:12:52;96545.38;;;3.53;100.00
62634;BME280;48704;50.534;6.442;2023-02-15T03:15:24;96546.75;;;3.34;100.00
62634;BME280;48704;50.534;6.442;2023-02-15T03:17:55;96547.34;;;3.08;100.00
62634;BME280;48704;50.534;6.442;2023-02-15T03:20:28;96546.00;;;2.82;100.00
62634;BME280;48704;50.534;6.442;2023-02-15T03:23:00;96544.50;;;2.66;100.00
62634;BME280;48704;50.534;6.442;2023-02-15T03:25:35;96544.25;;;2.43;100.00
62634;BME280;48704;50.534;6.442;2023-02-15T03:28:06;96537.97;;;2.46;100.00
62634;BME280;48704;50.534;6.442;2023-02-15T03:30:35;96541.66;;;2.84;100.00
62634;BME280;48704;50.534;6.442;2023-02-15T03:33:02;96534.88;;;2.96;100.00
62634;BME280;48704;50.534;6.442;2023-02-15T03:35:36;96540.09;;;3.31;100.00
62634;BME280;48704;50.534;6.442;2023-02-15T03:38:06;96537.41;;;3.24;100.00
62634;BME280;48704;50.534;6.442;2023-02-15T03:40:41;96542.59;;;3.12;100.00
62634;BME280;48704;50.534;6.442;2023-02-15T03:43:59;96533.09;;;3.20;100.00
62634;BME280;48704;50.534;6.442;2023-02-15T03:46:33;96539.25;;;2.90;100.00
62634;BME280;48704;50.534;6.442;2023-02-15T03:49:10;96536.09;;;2.91;100.00
62634;BME280;48704;50.534;6.442;2023-02-15T03:51:39;96535.19;;;3.05;100.00
62634;BME280;48704;50.534;6.442;2023-02-15T03:54:47;96538.09;;;2.84;100.00
62634;BME280;48704;50.534;6.442;2023-02-15T03:57:14;96535.88;;;2.64;100.00
62634;BME280;48704;50.534;6.442;2023-02-15T03:59:59;96535.03;;;2.75;100.00
62634;BME280;48704;50.534;6.442;2023-02-15T04:05:31;96531.00;;;2.90;100.00
62634;BME280;48704;50.534;6.442;2023-02-15T04:07:56;96531.00;;;2.86;100.00
62634;BME280;48704;50.534;6.442;2023-02-15T04:10:22;96525.91;;;2.85;100.00
62634;BME280;48704;50.534;6.442;2023-02-15T04:13:05;96527.84;;;2.88;100.00
62634;BME280;48704;50.534;6.442;2023-02-15T04:15:30;96525.09;;;2.91;100.00
62634;BME280;48704;50.534;6.442;2023-02-15T04:18:14;96516.97;;;2.66;100.00
62634;BME280;48704;50.534;6.442;2023-02-15T04:20:44;96520.22;;;2.54;100.00
62634;BME280;48704;50.534;6.442;2023-02-15T04:23:28;96520.88;;;2.73;100.00
62634;BME280;48704;50.534;6.442;2023-02-15T04:26:11;96509.66;;;3.01;100.00
62634;BME280;48704;50.534;6.442;2023-02-15T04:28:37;96519.41;;;3.09;100.00
62634;BME280;48704;50.534;6.442;2023-02-15T04:31:02;96516.88;;;2.84;100.00
62634;BME280;48704;50.534;6.442;2023-02-15T04:33:27;96509.81;;;2.80;100.00
62634;BME280;48704;50.534;6.442;2023-02-15T04:35:53;96511.28;;;2.95;100.00
62634;BME280;48704;50.534;6.442;2023-02-15T04:38:18;96501.84;;;2.96;100.00
62634;BME280;48704;50.534;6.442;2023-02-15T04:40:43;96515.22;;;2.94;100.00
62634;BME280;48704;50.534;6.442;2023-02-15T04:43:08;96511.69;;;3.34;100.00
62634;BME280;48704;50.534;6.442;2023-02-15T04:45:34;96514.63;;;3.58;100.00
62634;BME280;48704;50.534;6.442;2023-02-15T04:47:59;96503.91;;;3.67;100.00
62634;BME280;48704;50.534;6.442;2023-02-15T04:50:24;96507.09;;;3.65;100.00
62634;BME280;48704;50.534;6.442;2023-02-15T04:52:49;96509.91;;;3.58;100.00
62634;BME280;48704;50.534;6.442;2023-02-15T04:55:15;96504.13;;;3.46;100.00
62634;BME280;48704;50.534;6.442;2023-02-15T04:57:40;96509.41;;;3.29;100.00
62634;BME280;48704;50.534;6.442;2023-02-15T05:00:06;96503.91;;;3.29;100.00
62634;BME280;48704;50.534;6.442;2023-02-15T05:02:32;96507.09;;;3.24;100.00
62634;BME280;48704;50.534;6.442;2023-02-15T05:04:57;96511.16;;;3.09;100.00
62634;BME280;48704;50.534;6.442;2023-02-15T05:07:23;96501.72;;;3.10;100.00
62634;BME280;48704;50.534;6.442;2023-02-15T05:09:48;96507.28;;;3.03;100.00
62634;BME280;48704;50.534;6.442;2023-02-15T05:12:13;96507.44;;;2.85;100.00
62634;BME280;48704;50.534;6.442;2023-02-15T05:14:39;96501.22;;;2.71;100.00
62634;BME280;48704;50.534;6.442;2023-02-15T05:17:04;96502.41;;;2.69;100.00
62634;BME280;48704;50.534;6.442;2023-02-15T05:19:30;96503.06;;;2.91;100.00
62634;BME280;48704;50.534;6.442;2023-02-15T05:21:56;96491.50;;;3.07;100.00
62634;BME280;48704;50.534;6.442;2023-02-15T05:24:21;96497.94;;;3.34;100.00
62634;BME280;48704;50.534;6.442;2023-02-15T05:27:05;96496.59;;;3.50;100.00
62634;BME280;48704;50.534;6.442;2023-02-15T05:29:49;96498.50;;;3.56;100.00
62634;BME280;48704;50.534;6.442;2023-02-15T05:32:14;96497.13;;;3.75;100.00
62634;BME280;48704;50.534;6.442;2023-02-15T05:34:40;96497.00;;;3.86;100.00
62634;BME280;48704;50.534;6.442;2023-02-15T05:37:05;96500.75;;;4.02;100.00
62634;BME280;48704;50.534;6.442;2023-02-15T05:39:30;96492.84;;;4.05;100.00
62634;BME280;48704;50.534;6.442;2023-02-15T05:42:01;96491.28;;;4.03;100.00
62634;BME280;48704;50.534;6.442;2023-02-15T05:44:26;96502.31;;;4.03;99.26
62634;BME280;48704;50.534;6.442;2023-02-15T05:46:51;96503.97;;;3.97;99.77
62634;BME280;48704;50.534;6.442;2023-02-15T05:49:16;96495.84;;;4.14;96.35
62634;BME280;48704;50.534;6.442;2023-02-15T05:51:42;96494.97;;;4.51;92.06
62634;BME280;48704;50.534;6.442;2023-02-15T05:54:07;96493.09;;;4.44;91.85
62634;BME280;48704;50.534;6.442;2023-02-15T05:56:32;96489.28;;;4.34;92.74
62634;BME280;48704;50.534;6.442;2023-02-15T05:58:58;96488.56;;;4.30;92.34
62634;BME280;48704;50.534;6.442;2023-02-15T06:01:23;96492.41;;;4.36;91.47
62634;BME280;48704;50.534;6.442;2023-02-15T06:03:48;96497.97;;;4.33;90.89
62634;BME280;48704;50.534;6.442;2023-02-15T06:06:14;96497.19;;;4.32;91.07
62634;BME280;48704;50.534;6.442;2023-02-15T06:08:39;96498.81;;;4.30;91.31
62634;BME280;48704;50.534;6.442;2023-02-15T06:11:05;96495.78;;;4.21;91.58
62634;BME280;48704;50.534;6.442;2023-02-15T06:13:31;96500.41;;;4.27;91.08
62634;BME280;48704;50.534;6.442;2023-02-15T06:15:56;96497.25;;;4.29;90.67
62634;BME280;48704;50.534;6.442;2023-02-15T06:18:21;96501.56;;;4.30;90.40
62634;BME280;48704;50.534;6.442;2023-02-15T06:20:47;96501.09;;;4.35;89.49
62634;BME280;48704;50.534;6.442;2023-02-15T06:23:13;96494.13;;;4.27;90.28
62634;BME280;48704;50.534;6.442;2023-02-15T06:25:38;96504.88;;;4.18;90.96
62634;BME280;48704;50.534;6.442;2023-02-15T06:28:04;96502.31;;;4.03;92.34
62634;BME280;48704;50.534;6.442;2023-02-15T06:30:29;96502.19;;;4.11;91.27
62634;BME280;48704;50.534;6.442;2023-02-15T06:32:55;96502.13;;;4.18;90.29
62634;BME280;48704;50.534;6.442;2023-02-15T06:35:20;96495.69;;;4.28;89.97
62634;BME280;48704;50.534;6.442;2023-02-15T06:37:47;96498.91;;;4.23;89.83
62634;BME280;48704;50.534;6.442;2023-02-15T06:40:12;96500.28;;;4.38;89.19
62634;BME280;48704;50.534;6.442;2023-02-15T06:42:37;96496.41;;;4.32;88.64
62634;BME280;48704;50.534;6.442;2023-02-15T06:45:03;96503.19;;;4.27;89.98
62634;BME280;48704;50.534;6.442;2023-02-15T06:47:29;96505.59;;;4.22;89.81
62634;BME280;48704;50.534;6.442;2023-02-15T06:49:54;96499.53;;;4.34;88.92
62634;BME280;48704;50.534;6.442;2023-02-15T06:52:19;96497.31;;;4.52;88.25
62634;BME280;48704;50.534;6.442;2023-02-15T06:54:45;96498.22;;;4.73;86.65
62634;BME280;48704;50.534;6.442;2023-02-15T06:57:10;96498.81;;;4.84;85.83
62634;BME280;48704;50.534;6.442;2023-02-15T06:59:35;96499.94;;;4.86;85.24
62634;BME280;48704;50.534;6.442;2023-02-15T07:02:01;96502.44;;;4.81;85.19
62634;BME280;48704;50.534;6.442;2023-02-15T07:04:26;96496.53;;;4.79;86.06
62634;BME280;48704;50.534;6.442;2023-02-15T07:06:55;96499.59;;;4.84;85.32
62634;BME280;48704;50.534;6.442;2023-02-15T07:09:21;96490.19;;;4.82;85.92
62634;BME280;48704;50.534;6.442;2023-02-15T07:11:47;96498.47;;;4.82;86.17
62634;BME280;48704;50.534;6.442;2023-02-15T07:14:31;96492.59;;;4.80;85.98
62634;BME280;48704;50.534;6.442;2023-02-15T07:16:56;96487.41;;;4.82;85.49
62634;BME280;48704;50.534;6.442;2023-02-15T07:19:22;96487.75;;;4.84;85.82
62634;BME280;48704;50.534;6.442;2023-02-15T07:21:47;96487.06;;;5.03;84.06
62634;BME280;48704;50.534;6.442;2023-02-15T07:24:13;96486.59;;;5.08;82.63
62634;BME280;48704;50.534;6.442;2023-02-15T07:26:39;96481.19;;;5.01;83.18
62634;BME280;48704;50.534;6.442;2023-02-15T07:29:04;96482.84;;;4.95;84.00
62634;BME280;48704;50.534;6.442;2023-02-15T07:31:29;96481.06;;;5.08;82.98
62634;BME280;48704;50.534;6.442;2023-02-15T07:33:55;96478.66;;;5.10;83.21
62634;BME280;48704;50.534;6.442;2023-02-15T07:36:20;96476.94;;;5.20;83.07
62634;BME280;48704;50.534;6.442;2023-02-15T07:38:45;96472.63;;;5.38;81.53
62634;BME280;48704;50.534;6.442;2023-02-15T07:41:12;96481.66;;;5.43;82.05
62634;BME280;48704;50.534;6.442;2023-02-15T07:43:41;96473.72;;;5.45;81.12
62634;BME280;48704;50.534;6.442;2023-02-15T07:46:09;96467.34;;;5.48;81.23
62634;BME280;48704;50.534;6.442;2023-02-15T07:48:37;96469.19;;;5.54;81.29
62634;BME280;48704;50.534;6.442;2023-02-15T07:51:05;96461.03;;;5.67;80.79
62634;BME280;48704;50.534;6.442;2023-02-15T07:53:31;96466.44;;;5.74;80.90
62634;BME280;48704;50.534;6.442;2023-02-15T07:56:00;96467.16;;;5.78;81.08
62634;BME280;48704;50.534;6.442;2023-02-15T07:58:26;96460.28;;;5.86;79.87
62634;BME280;48704;50.534;6.442;2023-02-15T08:01:12;96454.97;;;5.95;80.40
62634;BME280;48704;50.534;6.442;2023-02-15T08:03:37;96452.91;;;5.99;79.84
62634;BME280;48704;50.534;6.442;2023-02-15T08:06:03;96453.25;;;6.01;79.48
62634;BME280;48704;50.534;6.442;2023-02-15T08:08:28;96458.31;;;6.07;79.85
62634;BME280;48704;50.534;6.442;2023-02-15T08:11:07;96454.38;;;6.24;78.21
62634;BME280;48704;50.534;6.442;2023-02-15T08:14:10;96455.09;;;6.28;77.79
62634;BME280;48704;50.534;6.442;2023-02-15T08:19:09;96453.41;;;6.50;76.63
62634;BME280;48704;50.534;6.442;2023-02-15T08:21:36;96448.91;;;6.56;76.99
62634;BME280;48704;50.534;6.442;2023-02-15T08:24:03;96447.91;;;6.66;76.77
62634;BME280;48704;50.534;6.442;2023-02-15T08:26:29;96443.72;;;6.75;77.16
62634;BME280;48704;50.534;6.442;2023-02-15T08:28:55;96441.84;;;6.88;75.60
62634;BME280;48704;50.534;6.442;2023-02-15T08:31:21;96449.81;;;7.02;75.66
62634;BME280;48704;50.534;6.442;2023-02-15T08:33:48;96444.41;;;7.11;75.40
62634;BME280;48704;50.534;6.442;2023-02-15T08:36:16;96447.97;;;7.28;74.05
62634;BME280;48704;50.534;6.442;2023-02-15T08:38:42;96437.31;;;7.26;75.71
62634;BME280;48704;50.534;6.442;2023-02-15T08:41:25;96438.81;;;7.44;75.08
62634;BME280;48704;50.534;6.442;2023-02-15T08:43:55;96440.19;;;7.52;74.31
62634;BME280;48704;50.534;6.442;2023-02-15T08:46:22;96443.47;;;7.63;75.28
62634;BME280;48704;50.534;6.442;2023-02-15T08:48:47;96447.94;;;7.73;72.42
62634;BME280;48704;50.534;6.442;2023-02-15T08:51:18;96443.19;;;7.86;71.35
62634;BME280;48704;50.534;6.442;2023-02-15T08:53:46;96441.44;;;7.92;71.71
62634;BME280;48704;50.534;6.442;2023-02-15T08:56:14;96446.22;;;7.92;72.31
62634;BME280;48704;50.534;6.442;2023-02-15T08:58:40;96435.03;;;7.95;72.72
62634;BME280;48704;50.534;6.442;2023-02-15T09:01:14;96449.72;;;8.09;71.10
62634;BME280;48704;50.534;6.442;2023-02-15T09:03:43;96438.19;;;8.23;69.27
62634;BME280;48704;50.534;6.442;2023-02-15T09:06:09;96450.66;;;8.31;69.01
62634;BME280;48704;50.534;6.442;2023-02-15T09:08:34;96450.34;;;8.42;68.41
62634;BME280;48704;50.534;6.442;2023-02-15T09:11:07;96449.16;;;8.68;67.84
62634;BME280;48704;50.534;6.442;2023-02-15T09:13:33;96444.94;;;8.76;67.80
62634;BME280;48704;50.534;6.442;2023-02-15T09:16:00;96445.34;;;9.00;67.45
62634;BME280;48704;50.534;6.442;2023-02-15T09:18:26;96451.78;;;9.22;69.26
62634;BME280;48704;50.534;6.442;2023-02-15T09:20:51;96451.03;;;9.44;66.08
62634;BME280;48704;50.534;6.442;2023-02-15T09:23:17;96446.28;;;9.66;64.90
62634;BME280;48704;50.534;6.442;2023-02-15T09:25:42;96446.31;;;9.88;61.35
62634;BME280;48704;50.534;6.442;2023-02-15T09:28:08;96450.94;;;10.25;59.37
62634;BME280;48704;50.534;6.442;2023-02-15T09:30:33;96449.50;;;10.74;58.25
62634;BME280;48704;50.534;6.442;2023-02-15T09:32:58;96453.41;;;11.34;59.83
62634;BME280;48704;50.534;6.442;2023-02-15T09:35:23;96446.28;;;11.52;55.85
62634;BME280;48704;50.534;6.442;2023-02-15T09:37:49;96452.41;;;11.87;52.89
62634;BME280;48704;50.534;6.442;2023-02-15T09:40:15;96442.59;;;12.00;52.89
62634;BME280;48704;50.534;6.442;2023-02-15T09:43:10;96445.88;;;12.68;50.35
62634;BME280;48704;50.534;6.442;2023-02-15T09:56:31;96444.34;;;13.81;47.21
62634;BME280;48704;50.534;6.442;2023-02-15T10:07:39;96431.84;;;13.44;45.68
62634;BME280;48704;50.534;6.442;2023-02-15T10:10:24;96436.84;;;13.39;43.85
62634;BME280;48704;50.534;6.442;2023-02-15T10:13:07;96440.28;;;13.82;42.95
62634;BME280;48704;50.534;6.442;2023-02-15T10:21:50;96437.66;;;15.05;43.02
62634;BME280;48704;50.534;6.442;2023-02-15T10:24:27;96443.97;;;15.35;40.69
62634;BME280;48704;50.534;6.442;2023-02-15T10:27:13;96450.81;;;15.14;39.80
62634;BME280;48704;50.534;6.442;2023-02-15T10:32:26;96437.69;;;15.61;40.33
62634;BME280;48704;50.534;6.442;2023-02-15T10:35:05;96442.50;;;15.05;39.84
62634;BME280;48704;50.534;6.442;2023-02-15T10:38:01;96442.31;;;14.94;41.60
62634;BME280;48704;50.534;6.442;2023-02-15T10:48:51;96438.81;;;16.10;37.74
62634;BME280;48704;50.534;6.442;2023-02-15T10:56:38;96439.81;;;15.66;37.22
62634;BME280;48704;50.534;6.442;2023-02-15T11:09:59;96418.31;;;16.55;37.39
62634;BME280;48704;50.534;6.442;2023-02-15T11:12:28;96418.19;;;15.72;37.60
62634;BME280;48704;50.534;6.442;2023-02-15T11:15:01;96421.84;;;16.50;37.69
62634;BME280;48704;50.534;6.442;2023-02-15T11:17:34;96427.41;;;15.98;37.97
62634;BME280;48704;50.534;6.442;2023-02-15T11:22:35;96414.66;;;17.07;36.84
62634;BME280;48704;50.534;6.442;2023-02-15T11:25:04;96416.75;;;17.17;36.03
62634;BME280;48704;50.534;6.442;2023-02-15T11:27:40;96407.50;;;17.11;35.89
62634;BME280;48704;50.534;6.442;2023-02-15T11:30:11;96408.91;;;17.27;35.52
62634;BME280;48704;50.534;6.442;2023-02-15T11:32:46;96410.31;;;17.06;35.50
62634;BME280;48704;50.534;6.442;2023-02-15T11:37:54;96398.94;;;17.31;34.89
62634;BME280;48704;50.534;6.442;2023-02-15T11:40:30;96395.09;;;16.92;33.86
62634;BME280;48704;50.534;6.442;2023-02-15T11:42:58;96393.88;;;17.47;34.09
62634;BME280;48704;50.534;6.442;2023-02-15T11:45:30;96380.22;;;17.71;33.92
62634;BME280;48704;50.534;6.442;2023-02-15T11:47:57;96388.59;;;16.80;33.68
62634;BME280;48704;50.534;6.442;2023-02-15T11:50:25;96383.63;;;16.64;34.00
62634;BME280;48704;50.534;6.442;2023-02-15T11:52:52;96382.16;;;17.11;33.37
62634;BME280;48704;50.534;6.442;2023-02-15T11:55:22;96367.94;;;16.89;33.72
62634;BME280;48704;50.534;6.442;2023-02-15T11:57:54;96368.34;;;16.70;33.18
62634;BME280;48704;50.534;6.442;2023-02-15T12:00:29;96363.00;;;16.78;34.05
62634;BME280;48704;50.534;6.442;2023-02-15T12:02:57;96362.44;;;16.74;33.98
62634;BME280;48704;50.534;6.442;2023-02-15T12:05:25;96362.47;;;17.17;34.29
62634;BME280;48704;50.534;6.442;2023-02-15T12:08:11;96362.78;;;16.82;34.40
62634;BME280;48704;50.534;6.442;2023-02-15T12:10:44;96364.53;;;16.79;34.50
62634;BME280;48704;50.534;6.442;2023-02-15T12:13:14;96364.34;;;17.74;34.31
62634;BME280;48704;50.534;6.442;2023-02-15T12:15:45;96366.94;;;17.94;33.98
62634;BME280;48704;50.534;6.442;2023-02-15T12:18:34;96356.91;;;16.85;33.68
62634;BME280;48704;50.534;6.442;2023-02-15T12:21:07;96351.69;;;16.73;33.89
62634;BME280;48704;50.534;6.442;2023-02-15T12:23:41;96354.88;;;16.54;34.11
62634;BME280;48704;50.534;6.442;2023-02-15T12:26:07;96357.44;;;16.00;35.55
62634;BME280;48704;50.534;6.442;2023-02-15T12:28:33;96360.91;;;15.90;36.28
62634;BME280;48704;50.534;6.442;2023-02-15T12:31:02;96349.47;;;15.93;35.72
62634;BME280;48704;50.534;6.442;2023-02-15T12:33:35;96343.88;;;16.25;36.63
62634;BME280;48704;50.534;6.442;2023-02-15T12:38:27;96335.44;;;16.56;34.83
62634;BME280;48704;50.534;6.442;2023-02-15T12:41:23;96334.09;;;16.78;36.44
62634;BME280;48704;50.534;6.442;2023-02-15T12:44:15;96333.28;;;16.14;36.66
62634;BME280;48704;50.534;6.442;2023-02-15T12:46:40;96326.09;;;16.39;36.63
62634;BME280;48704;50.534;6.442;2023-02-15T12:49:20;96322.78;;;16.66;36.30
62634;BME280;48704;50.534;6.442;2023-02-15T12:51:57;96320.38;;;16.28;35.92
62634;BME280;48704;50.534;6.442;2023-02-15T12:54:41;96311.41;;;16.55;35.86
62634;BME280;48704;50.534;6.442;2023-02-15T12:57:35;96324.44;;;16.90;35.17
62634;BME280;48704;50.534;6.442;2023-02-15T13:02:47;96313.38;;;16.49;35.09
62634;BME280;48704;50.534;6.442;2023-02-15T13:05:26;96316.66;;;16.74;35.72
62634;BME280;48704;50.534;6.442;2023-02-15T13:07:57;96313.31;;;17.12;34.65
62634;BME280;48704;50.534;6.442;2023-02-15T13:10:27;96309.31;;;18.06;34.46
62634;BME280;48704;50.534;6.442;2023-02-15T13:12:54;96306.75;;;18.25;33.24
62634;BME280;48704;50.534;6.442;2023-02-15T13:15:30;96301.34;;;18.04;32.71
62634;BME280;48704;50.534;6.442;2023-02-15T13:17:58;96306.97;;;17.93;33.99
62634;BME280;48704;50.534;6.442;2023-02-15T13:20:25;96296.72;;;18.01;31.95
62634;BME280;48704;50.534;6.442;2023-02-15T13:22:58;96296.59;;;17.57;33.82
62634;BME280;48704;50.534;6.442;2023-02-15T13:25:27;96296.72;;;17.25;33.02
62634;BME280;48704;50.534;6.442;2023-02-15T13:27:56;96301.44;;;17.51;34.03
62634;BME280;48704;50.534;6.442;2023-02-15T13:30:25;96298.97;;;17.10;34.75
62634;BME280;48704;50.534;6.442;2023-02-15T13:32:55;96287.97;;;17.88;33.55
62634;BME280;48704;50.534;6.442;2023-02-15T13:35:24;96281.31;;;17.15;32.99
62634;BME280;48704;50.534;6.442;2023-02-15T13:38:23;96290.84;;;17.23;34.31
62634;BME280;48704;50.534;6.442;2023-02-15T13:41:04;96295.66;;;17.71;33.32
62634;BME280;48704;50.534;6.442;2023-02-15T13:43:52;96284.94;;;18.09;33.49
62634;BME280;48704;50.534;6.442;2023-02-15T13:49:38;96277.75;;;17.96;33.03
62634;BME280;48704;50.534;6.442;2023-02-15T14:03:11;96280.81;;;16.68;34.38
62634;BME280;48704;50.534;6.442;2023-02-15T14:11:37;96284.53;;;15.91;37.19
62634;BME280;48704;50.534;6.442;2023-02-15T14:14:36;96288.34;;;15.88;37.75
62634;BME280;48704;50.534;6.442;2023-02-15T14:17:23;96289.16;;;15.94;37.93
62634;BME280;48704;50.534;6.442;2023-02-15T14:19:57;96283.47;;;15.63;38.39
62634;BME280;48704;50.534;6.442;2023-02-15T14:22:44;96295.41;;;15.37;37.81
62634;BME280;48704;50.534;6.442;2023-02-15T14:25:25;96291.06;;;15.36;38.44
62634;BME280;48704;50.534;6.442;2023-02-15T14:28:19;96302.00;;;14.94;40.64
62634;BME280;48704;50.534;6.442;2023-02-15T14:30:50;96301.16;;;14.53;41.34
62634;BME280;48704;50.534;6.442;2023-02-15T14:33:36;96289.97;;;14.23;41.10
62634;BME280;48704;50.534;6.442;2023-02-15T14:36:04;96296.06;;;14.36;42.08
62634;BME280;48704;50.534;6.442;2023-02-15T14:41:17;96296.75;;;14.17;43.49
62634;BME280;48704;50.534;6.442;2023-02-15T14:49:32;96307.59;;;13.94;44.79
62634;BME280;48704;50.534;6.442;2023-02-15T14:52:15;96301.00;;;13.68;45.42
62634;BME280;48704;50.534;6.442;2023-02-15T14:59:52;96308.94;;;13.84;46.51
62634;BME280;48704;50.534;6.442;2023-02-15T15:02:27;96302.72;;;13.51;47.51
62634;BME280;48704;50.534;6.442;2023-02-15T15:05:01;96295.13;;;13.27;48.14
62634;BME280;48704;50.534;6.442;2023-02-15T15:07:35;96302.38;;;13.10;49.63
62634;BME280;48704;50.534;6.442;2023-02-15T15:12:44;96294.34;;;13.03;51.56
62634;BME280;48704;50.534;6.442;2023-02-15T15:15:13;96292.56;;;12.67;52.80
62634;BME280;48704;50.534;6.442;2023-02-15T15:17:53;96290.00;;;12.54;54.04
62634;BME280;48704;50.534;6.442;2023-02-15T15:20:44;96291.25;;;12.53;54.87
62634;BME280;48704;50.534;6.442;2023-02-15T15:26:20;96294.88;;;11.93;56.22
62634;BME280;48704;50.534;6.442;2023-02-15T15:34:15;96294.81;;;11.15;59.94
62634;BME280;48704;50.534;6.442;2023-02-15T15:37:05;96286.00;;;11.07;61.86